createdAt,value
2022-11-12T00:01:02.731Z,88.45
2022-11-12T00:03:36.732Z,88.53
2022-11-12T00:06:03.243Z,88.11
2022-11-12T00:08:30.052Z,88.38
2022-11-12T00:10:56.653Z,88.60
2022-11-12T00:13:23.123Z,88.34
2022-11-12T00:15:49.527Z,88.60
2022-11-12T00:18:15.922Z,88.59
2022-11-12T00:20:42.444Z,88.98
2022-11-12T00:23:08.814Z,88.81
2022-11-12T00:25:35.328Z,89.04
2022-11-12T00:28:03.556Z,89.12
2022-11-12T00:30:30.468Z,89.11
2022-11-12T00:32:56.905Z,89.38
2022-11-12T00:35:23.270Z,89.75
2022-11-12T00:37:54.795Z,90.18
2022-11-12T00:40:21.463Z,90.55
2022-11-12T00:42:47.863Z,90.68
2022-11-12T00:45:14.249Z,90.46
2022-11-12T00:47:40.604Z,90.16
2022-11-12T00:50:07.627Z,90.13
2022-11-12T00:52:34.006Z,90.55
2022-11-12T00:55:00.364Z,90.95
2022-11-12T00:57:26.763Z,90.96
2022-11-12T00:59:53.128Z,90.78
2022-11-12T01:02:20.429Z,90.38
2022-11-12T01:04:46.790Z,90.27
2022-11-12T01:07:37.639Z,90.27
2022-11-12T01:10:04.918Z,90.26
2022-11-12T01:12:31.935Z,90.22
2022-11-12T01:14:58.346Z,90.27
2022-11-12T01:17:24.713Z,90.06
2022-11-12T01:19:51.085Z,90.32
2022-11-12T01:22:17.660Z,89.85
2022-11-12T01:24:44.099Z,90.01
2022-11-12T01:27:10.460Z,90.06
2022-11-12T01:29:36.851Z,89.64
2022-11-12T01:32:03.231Z,89.99
2022-11-12T01:34:29.684Z,90.16
2022-11-12T01:36:56.121Z,90.27
2022-11-12T01:39:22.591Z,90.12
2022-11-12T01:41:48.952Z,90.16
2022-11-12T01:44:19.642Z,90.30
2022-11-12T01:47:00.708Z,90.64
2022-11-12T01:49:32.452Z,90.50
2022-11-12T01:52:02.202Z,90.33
2022-11-12T01:54:29.156Z,90.08
2022-11-12T01:56:57.270Z,90.17
2022-11-12T01:59:29.675Z,89.94
2022-11-12T02:01:56.159Z,90.10
2022-11-12T02:04:23.024Z,90.07
2022-11-12T02:06:51.056Z,89.93
2022-11-12T02:09:18.451Z,89.95
2022-11-12T02:11:48.215Z,89.73
2022-11-12T02:14:14.775Z,89.89
2022-11-12T02:16:45.028Z,89.82
2022-11-12T02:19:15.378Z,89.79
2022-11-12T02:21:42.224Z,90.01
2022-11-12T02:24:11.538Z,90.08
2022-11-12T02:26:42.283Z,90.07
2022-11-12T02:29:08.671Z,90.05
2022-11-12T02:31:35.406Z,90.04
2022-11-12T02:34:01.788Z,90.11
2022-11-12T02:36:28.955Z,90.23
2022-11-12T02:38:55.351Z,90.28
2022-11-12T02:41:21.761Z,90.10
2022-11-12T02:43:48.129Z,90.21
2022-11-12T02:46:14.871Z,90.45
2022-11-12T02:48:41.255Z,90.40
2022-11-12T02:51:07.646Z,90.20
2022-11-12T02:53:34.243Z,90.45
2022-11-12T02:56:01.153Z,90.30
2022-11-12T02:58:28.661Z,90.33
2022-11-12T03:00:57.141Z,90.18
2022-11-12T03:03:23.666Z,89.92
2022-11-12T03:05:58.133Z,89.97
2022-11-12T03:08:25.503Z,90.06
2022-11-12T03:10:52.883Z,90.12
2022-11-12T03:13:19.874Z,90.36
2022-11-12T03:15:46.328Z,90.33
2022-11-12T03:18:12.782Z,90.20
2022-11-12T03:20:39.161Z,90.32
2022-11-12T03:23:08.058Z,90.30
2022-11-12T03:25:35.028Z,90.22
2022-11-12T03:28:06.862Z,90.19
2022-11-12T03:30:35.360Z,90.22
2022-11-12T03:33:01.927Z,90.11
2022-11-12T03:35:28.498Z,90.44
2022-11-12T03:37:54.876Z,90.01
2022-11-12T03:40:21.441Z,90.12
2022-11-12T03:42:48.927Z,90.25
2022-11-12T03:45:19.514Z,90.36
2022-11-12T03:47:47.821Z,90.29
2022-11-12T03:50:15.181Z,90.30
2022-11-12T03:52:47.025Z,90.27
2022-11-12T03:55:14.719Z,89.98
2022-11-12T03:57:41.104Z,90.09
2022-11-12T04:00:09.050Z,89.91
2022-11-12T04:02:35.402Z,90.31
2022-11-12T04:05:20.744Z,89.69
2022-11-12T04:08:16.095Z,90.25
2022-11-12T04:10:42.512Z,90.05
2022-11-12T04:13:27.390Z,90.29
2022-11-12T04:16:20.943Z,90.16
2022-11-12T04:19:08.310Z,90.07
2022-11-12T04:21:55.896Z,90.25
2022-11-12T04:25:08.346Z,90.10
2022-11-12T04:27:35.157Z,90.41
2022-11-12T04:30:16.801Z,90.65
2022-11-12T04:32:56.769Z,90.48
2022-11-12T04:35:24.731Z,90.50
2022-11-12T04:37:51.369Z,90.70
2022-11-12T04:40:37.563Z,90.52
2022-11-12T04:43:24.248Z,91.36
2022-11-12T04:45:54.832Z,90.98
2022-11-12T04:48:22.771Z,90.76
2022-11-12T04:51:25.511Z,90.55
2022-11-12T04:53:52.087Z,90.45
2022-11-12T04:56:18.483Z,90.37
2022-11-12T04:58:44.862Z,90.32
2022-11-12T05:01:11.252Z,90.22
2022-11-12T05:03:37.633Z,90.40
2022-11-12T05:06:25.357Z,90.67
2022-11-12T05:08:51.730Z,90.79
2022-11-12T05:11:18.138Z,90.67
2022-11-12T05:13:44.493Z,90.39
2022-11-12T05:16:10.859Z,90.38
2022-11-12T05:18:37.430Z,90.63
2022-11-12T05:21:23.924Z,90.73
2022-11-12T05:23:50.287Z,90.10
2022-11-12T05:26:16.673Z,90.41
2022-11-12T05:28:43.062Z,90.35
2022-11-12T05:31:09.430Z,90.47
2022-11-12T05:33:35.799Z,90.36
2022-11-12T05:36:02.159Z,90.29
2022-11-12T05:38:29.000Z,90.21
2022-11-12T05:40:55.607Z,90.07
2022-11-12T05:43:21.961Z,89.93
2022-11-12T05:45:48.306Z,90.20
2022-11-12T05:48:14.684Z,90.02
2022-11-12T05:51:06.307Z,89.46
2022-11-12T05:53:27.441Z,89.75
2022-11-12T05:55:53.792Z,89.62
2022-11-12T05:58:20.210Z,89.78
2022-11-12T06:00:47.839Z,89.56
2022-11-12T06:03:14.200Z,90.32
2022-11-12T06:05:40.560Z,90.12
2022-11-12T06:08:07.259Z,89.75
2022-11-12T06:10:33.826Z,89.68
2022-11-12T06:13:00.369Z,89.50
2022-11-12T06:15:27.024Z,89.53
2022-11-12T06:17:54.199Z,89.58
2022-11-12T06:20:21.767Z,89.57
2022-11-12T06:22:48.688Z,89.40
2022-11-12T06:25:15.084Z,89.59
2022-11-12T06:27:41.473Z,89.30
2022-11-12T06:30:08.518Z,89.20
2022-11-12T06:32:34.950Z,89.28
2022-11-12T06:35:01.379Z,89.07
2022-11-12T06:37:27.764Z,89.03
2022-11-12T06:39:54.136Z,88.96
2022-11-12T06:42:20.515Z,89.00
2022-11-12T06:44:46.898Z,89.02
2022-11-12T06:47:13.575Z,88.97
2022-11-12T06:49:41.463Z,89.17
2022-11-12T06:52:10.045Z,89.11
2022-11-12T06:54:40.055Z,89.88
2022-11-12T06:57:06.523Z,89.78
2022-11-12T06:59:32.893Z,89.54
2022-11-12T07:01:59.395Z,89.81
2022-11-12T07:04:25.912Z,89.75
2022-11-12T07:06:52.332Z,90.03
2022-11-12T07:09:18.751Z,90.05
2022-11-12T07:11:45.123Z,89.30
2022-11-12T07:14:11.496Z,89.79
2022-11-12T07:16:37.917Z,89.49
2022-11-12T07:19:04.292Z,89.85
2022-11-12T07:21:30.660Z,89.56
2022-11-12T07:23:57.024Z,89.39
2022-11-12T07:26:25.572Z,89.57
2022-11-12T07:28:52.449Z,89.45
2022-11-12T07:31:20.036Z,89.17
2022-11-12T07:33:48.781Z,89.54
2022-11-12T07:36:17.420Z,89.33
2022-11-12T07:38:44.423Z,89.35
2022-11-12T07:41:15.430Z,89.48
2022-11-12T07:43:44.662Z,89.42
2022-11-12T07:46:15.741Z,89.53
2022-11-12T07:48:42.748Z,89.79
2022-11-12T07:51:13.880Z,89.31
2022-11-12T07:53:41.218Z,89.40
2022-11-12T07:56:07.854Z,89.47
2022-11-12T07:58:34.607Z,89.64
2022-11-12T08:01:11.098Z,89.47
2022-11-12T08:03:37.610Z,89.89
2022-11-12T08:06:04.479Z,89.75
2022-11-12T08:08:30.846Z,89.82
2022-11-12T08:10:58.373Z,89.82
2022-11-12T08:13:24.994Z,89.76
2022-11-12T08:15:52.523Z,89.72
2022-11-12T08:18:18.987Z,89.89
2022-11-12T08:20:45.340Z,89.84
2022-11-12T08:23:11.706Z,89.84
2022-11-12T08:25:38.071Z,89.73
2022-11-12T08:28:04.673Z,89.85
2022-11-12T08:30:31.023Z,89.92
2022-11-12T08:32:58.886Z,89.69
2022-11-12T08:35:29.317Z,89.58
2022-11-12T08:38:10.465Z,89.79
2022-11-12T08:40:37.179Z,89.99
2022-11-12T08:43:06.288Z,89.82
2022-11-12T08:45:34.196Z,89.74
2022-11-12T08:48:02.460Z,89.51
2022-11-12T08:50:29.447Z,89.56
2022-11-12T08:53:00.987Z,89.19
2022-11-12T08:55:28.172Z,89.38
2022-11-12T08:57:54.818Z,89.13
2022-11-12T09:00:21.332Z,88.42
2022-11-12T09:02:47.696Z,87.46
2022-11-12T09:05:14.055Z,86.02
2022-11-12T09:07:49.826Z,85.33
2022-11-12T09:10:17.195Z,84.33
2022-11-12T09:12:43.579Z,84.29
2022-11-12T09:15:36.432Z,84.28
2022-11-12T09:18:01.767Z,84.54
2022-11-12T09:20:29.277Z,84.58
2022-11-12T09:23:05.142Z,84.11
2022-11-12T09:25:31.536Z,84.05
2022-11-12T09:28:06.315Z,83.73
2022-11-12T09:30:32.689Z,82.98
2022-11-12T09:32:59.104Z,82.80
2022-11-12T09:35:25.488Z,82.21
2022-11-12T09:37:51.876Z,82.17
2022-11-12T09:40:19.189Z,81.11
2022-11-12T09:42:48.063Z,80.67
2022-11-12T09:45:22.684Z,79.03
2022-11-12T09:47:54.241Z,78.04
2022-11-12T09:51:00.209Z,76.94
2022-11-12T09:53:41.551Z,76.60
2022-11-12T09:56:12.839Z,76.55
2022-11-12T09:58:39.229Z,75.58
2022-11-12T10:01:22.576Z,74.11
2022-11-12T10:04:06.334Z,74.00
2022-11-12T10:06:41.781Z,72.71
2022-11-12T10:09:16.668Z,71.79
2022-11-12T10:12:15.877Z,70.23
2022-11-12T10:15:23.961Z,68.67
2022-11-12T10:18:01.479Z,67.95
2022-11-12T10:20:48.804Z,67.31
2022-11-12T10:23:21.222Z,65.54
2022-11-12T10:25:49.469Z,66.57
2022-11-12T10:28:25.568Z,65.88
2022-11-12T10:30:55.702Z,65.45
2022-11-12T10:33:22.075Z,66.39
2022-11-12T10:35:48.714Z,65.85
2022-11-12T10:38:18.848Z,66.09
2022-11-12T10:40:45.245Z,66.01
2022-11-12T10:43:17.585Z,65.30
2022-11-12T10:45:45.393Z,66.16
2022-11-12T10:48:28.766Z,66.49
2022-11-12T10:50:55.609Z,67.71
2022-11-12T10:53:48.379Z,67.12
2022-11-12T10:56:29.684Z,66.82
2022-11-12T10:59:11.252Z,67.57
2022-11-12T11:01:41.619Z,68.34
2022-11-12T11:04:28.011Z,68.72
2022-11-12T11:06:59.100Z,69.06
2022-11-12T11:09:26.712Z,68.87
2022-11-12T11:11:54.045Z,69.31
2022-11-12T11:14:23.482Z,69.63
2022-11-12T11:16:51.354Z,70.69
2022-11-12T11:19:17.984Z,70.54
2022-11-12T11:21:55.034Z,70.35
2022-11-12T11:24:30.461Z,70.95
2022-11-12T11:27:34.302Z,69.95
2022-11-12T11:30:19.698Z,69.75
2022-11-12T11:33:00.938Z,69.78
2022-11-12T11:35:31.208Z,69.35
2022-11-12T11:38:35.745Z,68.36
2022-11-12T11:41:11.241Z,68.67
2022-11-12T11:43:48.144Z,68.82
2022-11-12T11:46:22.032Z,67.68
2022-11-12T11:48:59.181Z,67.04
2022-11-12T11:51:37.447Z,67.24
2022-11-12T11:54:28.559Z,67.76
2022-11-12T11:56:58.778Z,67.81
2022-11-12T11:59:39.018Z,67.15
2022-11-12T12:02:14.368Z,67.99
2022-11-12T12:04:52.024Z,67.73
2022-11-12T12:07:24.253Z,67.34
2022-11-12T12:10:14.215Z,65.43
2022-11-12T12:13:00.967Z,66.91
2022-11-12T12:15:45.769Z,66.26
2022-11-12T12:18:12.031Z,66.73
2022-11-12T12:21:09.463Z,66.67
2022-11-12T12:24:03.560Z,65.19
2022-11-12T12:26:37.724Z,66.17
2022-11-12T12:29:45.483Z,64.57
2022-11-12T12:32:24.004Z,65.01
2022-11-12T12:35:21.636Z,63.81
2022-11-12T12:38:26.069Z,64.31
2022-11-12T12:41:01.796Z,65.04
2022-11-12T12:43:43.518Z,66.00
2022-11-12T12:46:13.202Z,65.73
2022-11-12T12:48:43.239Z,65.52
2022-11-12T12:51:09.712Z,65.87
2022-11-12T12:53:36.467Z,66.25
2022-11-12T12:56:29.034Z,65.28
2022-11-12T12:58:55.456Z,66.31
2022-11-12T13:01:22.060Z,66.16
2022-11-12T13:03:54.487Z,66.07
2022-11-12T13:06:23.924Z,66.04
2022-11-12T13:09:09.154Z,66.05
2022-11-12T13:12:00.259Z,65.57
2022-11-12T13:14:35.483Z,65.79
2022-11-12T13:17:11.806Z,66.57
2022-11-12T13:20:08.059Z,66.34
2022-11-12T13:22:49.981Z,65.87
2022-11-12T13:25:19.228Z,66.83
2022-11-12T13:27:45.550Z,66.45
2022-11-12T13:30:18.015Z,66.60
2022-11-12T13:32:54.808Z,66.46
2022-11-12T13:35:34.965Z,65.98
2022-11-12T13:38:15.650Z,65.93
2022-11-12T13:40:58.450Z,65.78
2022-11-12T13:43:31.587Z,66.13
2022-11-12T13:46:07.102Z,66.50
2022-11-12T13:48:35.900Z,67.17
2022-11-12T13:51:04.705Z,67.22
2022-11-12T13:53:32.242Z,66.31
2022-11-12T13:55:59.702Z,65.33
2022-11-12T13:58:32.395Z,64.80
2022-11-12T14:01:01.021Z,65.25
2022-11-12T14:03:33.189Z,65.22
2022-11-12T14:06:06.123Z,63.80
2022-11-12T14:08:45.893Z,62.75
2022-11-12T14:11:57.040Z,64.12
2022-11-12T14:14:39.765Z,63.15
2022-11-12T14:17:24.938Z,64.30
2022-11-12T14:20:13.685Z,63.20
2022-11-12T14:22:42.015Z,62.04
2022-11-12T14:25:23.856Z,59.00
2022-11-12T14:27:55.214Z,56.57
2022-11-12T14:30:21.893Z,56.73
2022-11-12T14:32:53.882Z,54.91
2022-11-12T14:35:23.255Z,55.61
2022-11-12T14:38:05.107Z,55.95
2022-11-12T14:40:34.136Z,56.45
2022-11-12T14:43:00.516Z,56.66
2022-11-12T14:45:31.204Z,55.79
2022-11-12T14:48:00.877Z,56.04
2022-11-12T14:50:29.516Z,56.48
2022-11-12T14:53:05.006Z,57.91
2022-11-12T14:55:33.826Z,59.68
2022-11-12T14:58:00.827Z,60.61
2022-11-12T15:00:30.144Z,61.10
2022-11-12T15:02:59.870Z,62.17
2022-11-12T15:05:29.268Z,63.15
2022-11-12T15:08:05.546Z,64.04
2022-11-12T15:10:41.941Z,64.72
2022-11-12T15:13:16.318Z,65.13
2022-11-12T15:16:22.571Z,64.90
2022-11-12T15:19:22.028Z,65.86
2022-11-12T15:22:01.161Z,66.24
2022-11-12T15:24:32.473Z,66.18
2022-11-12T15:27:00.854Z,66.50
2022-11-12T15:29:30.379Z,66.92
2022-11-12T15:31:59.665Z,67.72
2022-11-12T15:34:32.152Z,67.81
2022-11-12T15:37:02.036Z,68.70
2022-11-12T15:39:29.306Z,68.64
2022-11-12T15:42:29.170Z,69.59
2022-11-12T15:45:04.483Z,71.35
2022-11-12T15:47:31.047Z,71.79
2022-11-12T15:50:01.341Z,71.65
2022-11-12T15:52:27.940Z,71.73
2022-11-12T15:54:54.550Z,72.03
2022-11-12T15:57:27.122Z,72.75
2022-11-12T16:00:08.692Z,73.67
2022-11-12T16:02:35.362Z,73.63
2022-11-12T16:05:01.892Z,73.71
2022-11-12T16:07:28.268Z,74.01
2022-11-12T16:09:54.721Z,74.52
2022-11-12T16:12:21.134Z,74.92
2022-11-12T16:14:47.619Z,75.44
2022-11-12T16:17:15.634Z,75.85
2022-11-12T16:19:42.184Z,75.90
2022-11-12T16:22:12.583Z,76.24
2022-11-12T16:24:42.629Z,77.09
2022-11-12T16:27:13.943Z,77.30
2022-11-12T16:29:40.513Z,77.44
2022-11-12T16:32:07.251Z,77.61
2022-11-12T16:34:33.614Z,77.82
2022-11-12T16:37:00.004Z,78.16
2022-11-12T16:39:26.419Z,78.35
2022-11-12T16:41:53.573Z,78.99
2022-11-12T16:44:19.949Z,79.36
2022-11-12T16:46:46.310Z,79.88
2022-11-12T16:49:14.077Z,79.87
2022-11-12T16:51:40.685Z,79.87
2022-11-12T16:54:07.378Z,79.99
2022-11-12T16:56:34.422Z,80.02
2022-11-12T16:59:00.782Z,79.92
2022-11-12T17:01:31.835Z,80.37
2022-11-12T17:03:58.735Z,80.36
2022-11-12T17:06:39.413Z,80.64
2022-11-12T17:09:07.860Z,80.53
2022-11-12T17:11:35.071Z,81.05
2022-11-12T17:14:02.339Z,81.34
2022-11-12T17:16:29.006Z,81.39
2022-11-12T17:18:56.803Z,81.77
2022-11-12T17:21:23.476Z,81.82
2022-11-12T17:23:50.269Z,81.96
2022-11-12T17:26:19.407Z,82.10
2022-11-12T17:28:46.394Z,82.41
2022-11-12T17:31:21.219Z,82.62
2022-11-12T17:33:49.783Z,82.75
2022-11-12T17:36:24.189Z,82.87
2022-11-12T17:38:54.787Z,83.02
2022-11-12T17:41:21.172Z,83.42
2022-11-12T17:43:47.740Z,83.78
2022-11-12T17:46:14.796Z,83.57
2022-11-12T17:48:41.337Z,83.52
2022-11-12T17:51:11.150Z,83.70
2022-11-12T17:53:38.168Z,84.34
2022-11-12T17:56:05.589Z,84.06
2022-11-12T17:58:32.379Z,83.61
2022-11-12T18:01:08.256Z,83.94
2022-11-12T18:03:38.752Z,84.04
2022-11-12T18:06:05.203Z,84.29
2022-11-12T18:08:31.632Z,84.86
2022-11-12T18:10:58.021Z,84.85
2022-11-12T18:13:26.734Z,84.83
2022-11-12T18:15:53.441Z,85.08
2022-11-12T18:18:19.842Z,85.16
2022-11-12T18:20:46.209Z,84.87
2022-11-12T18:23:12.595Z,84.84
2022-11-12T18:25:38.984Z,85.23
2022-11-12T18:28:06.649Z,85.26
2022-11-12T18:30:34.190Z,85.63
2022-11-12T18:33:00.761Z,85.77
2022-11-12T18:35:29.830Z,85.63
2022-11-12T18:37:56.532Z,85.30
2022-11-12T18:40:23.739Z,85.39
2022-11-12T18:42:50.103Z,85.12
2022-11-12T18:45:16.665Z,85.70
2022-11-12T18:47:43.039Z,85.56
2022-11-12T18:50:09.923Z,85.56
2022-11-12T18:52:36.644Z,85.52
2022-11-12T18:55:03.883Z,85.75
2022-11-12T18:57:30.255Z,86.04
2022-11-12T18:59:56.659Z,85.85
2022-11-12T19:02:23.038Z,85.73
2022-11-12T19:04:49.402Z,85.84
2022-11-12T19:07:15.805Z,86.21
2022-11-12T19:09:42.180Z,85.72
2022-11-12T19:12:08.597Z,86.13
2022-11-12T19:14:34.957Z,86.19
2022-11-12T19:17:01.316Z,86.58
2022-11-12T19:19:27.765Z,86.51
2022-11-12T19:21:54.230Z,87.04
2022-11-12T19:24:20.648Z,87.03
2022-11-12T19:26:47.014Z,86.43
2022-11-12T19:29:13.667Z,86.34
2022-11-12T19:31:40.807Z,86.56
2022-11-12T19:34:07.209Z,86.53
2022-11-12T19:36:33.614Z,86.59
2022-11-12T19:39:02.363Z,86.23
2022-11-12T19:41:28.840Z,86.34
2022-11-12T19:43:55.767Z,86.55
2022-11-12T19:46:22.147Z,86.90
2022-11-12T19:48:48.801Z,87.18
2022-11-12T19:51:15.164Z,87.07
2022-11-12T19:53:44.537Z,86.83
2022-11-12T19:56:13.470Z,86.76
2022-11-12T19:58:40.377Z,87.27
2022-11-12T20:01:09.037Z,87.01
2022-11-12T20:03:36.429Z,87.05
2022-11-12T20:06:07.726Z,87.32
2022-11-12T20:08:34.451Z,87.21
2022-11-12T20:11:01.188Z,87.37
2022-11-12T20:13:28.092Z,87.26
2022-11-12T20:15:54.652Z,87.62
2022-11-12T20:18:21.421Z,87.46
2022-11-12T20:20:50.870Z,87.44
2022-11-12T20:23:17.362Z,87.42
2022-11-12T20:25:43.776Z,87.43
2022-11-12T20:28:10.751Z,87.41
2022-11-12T20:30:37.664Z,87.02
2022-11-12T20:33:04.116Z,87.12
2022-11-12T20:35:30.677Z,87.01
2022-11-12T20:37:57.061Z,86.78
2022-11-12T20:40:23.429Z,86.82
2022-11-12T20:42:51.811Z,87.18
2022-11-12T20:45:18.176Z,87.35
2022-11-12T20:47:44.539Z,87.85
2022-11-12T20:50:10.925Z,87.62
2022-11-12T20:52:37.314Z,87.33
2022-11-12T20:55:03.852Z,87.32
2022-11-12T20:57:30.230Z,87.04
2022-11-12T20:59:56.590Z,87.25
2022-11-12T21:02:22.962Z,87.50
2022-11-12T21:04:49.438Z,87.70
2022-11-12T21:07:15.880Z,87.62
2022-11-12T21:09:43.052Z,87.80
2022-11-12T21:12:09.403Z,87.75
2022-11-12T21:14:35.776Z,87.92
2022-11-12T21:17:02.158Z,88.14
2022-11-12T21:19:28.527Z,87.82
2022-11-12T21:21:54.894Z,87.58
2022-11-12T21:24:21.257Z,87.69
2022-11-12T21:26:50.921Z,87.62
2022-11-12T21:29:19.088Z,87.90
2022-11-12T21:31:45.608Z,88.07
2022-11-12T21:34:11.986Z,87.58
2022-11-12T21:36:38.449Z,88.03
2022-11-12T21:39:05.125Z,88.05
2022-11-12T21:41:32.080Z,88.02
2022-11-12T21:43:58.859Z,88.08
2022-11-12T21:46:27.572Z,87.94
2022-11-12T21:48:55.513Z,88.25
2022-11-12T21:51:30.792Z,88.01
2022-11-12T21:53:59.411Z,87.96
2022-11-12T21:56:26.705Z,88.29
2022-11-12T21:58:54.274Z,88.51
2022-11-12T22:01:25.038Z,88.77
2022-11-12T22:03:53.102Z,88.80
2022-11-12T22:06:20.590Z,88.69
2022-11-12T22:08:47.104Z,88.60
2022-11-12T22:11:15.370Z,89.07
2022-11-12T22:13:42.507Z,89.15
2022-11-12T22:16:13.276Z,89.04
2022-11-12T22:18:39.936Z,88.93
2022-11-12T22:21:09.505Z,88.81
2022-11-12T22:23:36.068Z,88.94
2022-11-12T22:26:07.572Z,88.80
2022-11-12T22:28:34.401Z,89.00
2022-11-12T22:31:11.829Z,88.58
2022-11-12T22:33:38.604Z,89.04
2022-11-12T22:36:10.293Z,88.72
2022-11-12T22:38:38.704Z,88.74
2022-11-12T22:41:07.430Z,88.69
2022-11-12T22:43:34.122Z,88.74
2022-11-12T22:46:07.162Z,88.75
2022-11-12T22:48:34.011Z,88.63
2022-11-12T22:51:01.542Z,88.72
2022-11-12T22:53:28.778Z,88.96
2022-11-12T22:55:55.359Z,88.71
2022-11-12T22:58:22.131Z,88.73
2022-11-12T23:00:48.577Z,88.50
2022-11-12T23:03:14.922Z,88.76
2022-11-12T23:05:42.443Z,88.91
2022-11-12T23:08:08.961Z,89.10
2022-11-12T23:10:35.334Z,89.47
2022-11-12T23:13:01.688Z,89.39
2022-11-12T23:15:29.110Z,89.22
2022-11-12T23:17:55.481Z,89.06
2022-11-12T23:20:21.868Z,89.04
2022-11-12T23:22:48.229Z,88.99
2022-11-12T23:25:14.654Z,88.92
2022-11-12T23:27:41.416Z,88.82
2022-11-12T23:30:08.278Z,88.54
2022-11-12T23:32:34.682Z,88.00
2022-11-12T23:35:01.064Z,88.76
2022-11-12T23:37:27.435Z,88.26
2022-11-12T23:39:53.787Z,88.06
2022-11-12T23:42:20.160Z,88.00
2022-11-12T23:44:46.527Z,88.35
2022-11-12T23:47:12.894Z,88.23
2022-11-12T23:49:39.307Z,88.10
2022-11-12T23:52:05.698Z,88.37
2022-11-12T23:54:32.066Z,88.59
2022-11-12T23:56:58.498Z,88.45
2022-11-12T23:59:24.898Z,88.48
